sensor_id;sensor_type;location;lat;lon;timestamp;pressure;altitude;pressure_sealevel;temperature;humidity
77041;BME280;65974;42.664;23.264;2023-07-09T00:01:46;94828.66;;;18.00;58.85
77041;BME280;65974;42.664;23.264;2023-07-09T00:04:14;94827.53;;;17.98;58.75
77041;BME280;65974;42.664;23.264;2023-07-09T00:06:39;94828.41;;;17.95;58.77
77041;BME280;65974;42.664;23.264;2023-07-09T00:09:08;94816.56;;;17.89;58.97
77041;BME280;65974;42.664;23.264;2023-07-09T00:11:37;94823.81;;;17.92;58.67
77041;BME280;65974;42.664;23.264;2023-07-09T00:14:05;94810.06;;;17.86;58.88
77041;BME280;65974;42.664;23.264;2023-07-09T00:16:31;94818.94;;;17.87;58.98
77041;BME280;65974;42.664;23.264;2023-07-09T00:18:56;94805.94;;;17.81;59.41
77041;BME280;65974;42.664;23.264;2023-07-09T00:21:22;94808.69;;;17.78;59.50
77041;BME280;65974;42.664;23.264;2023-07-09T00:23:47;94813.66;;;17.79;59.53
77041;BME280;65974;42.664;23.264;2023-07-09T00:26:17;94816.00;;;17.77;59.59
77041;BME280;65974;42.664;23.264;2023-07-09T00:28:46;94815.38;;;17.70;59.96
77041;BME280;65974;42.664;23.264;2023-07-09T00:31:13;94815.44;;;17.66;59.77
77041;BME280;65974;42.664;23.264;2023-07-09T00:33:40;94819.78;;;17.60;60.03
77041;BME280;65974;42.664;23.264;2023-07-09T00:36:14;94819.84;;;17.57;60.00
77041;BME280;65974;42.664;23.264;2023-07-09T00:38:41;94812.59;;;17.54;60.26
77041;BME280;65974;42.664;23.264;2023-07-09T00:41:15;94807.22;;;17.54;60.05
77041;BME280;65974;42.664;23.264;2023-07-09T00:43:43;94804.94;;;17.52;59.76
77041;BME280;65974;42.664;23.264;2023-07-09T00:48:40;94806.44;;;17.53;59.67
77041;BME280;65974;42.664;23.264;2023-07-09T00:51:18;94798.78;;;17.52;59.63
77041;BME280;65974;42.664;23.264;2023-07-09T00:53:46;94805.72;;;17.49;59.85
77041;BME280;65974;42.664;23.264;2023-07-09T00:56:17;94796.50;;;17.50;59.93
77041;BME280;65974;42.664;23.264;2023-07-09T00:58:46;94796.53;;;17.47;59.80
77041;BME280;65974;42.664;23.264;2023-07-09T01:01:16;94794.16;;;17.52;59.29
77041;BME280;65974;42.664;23.264;2023-07-09T01:03:52;94803.75;;;17.53;59.59
77041;BME280;65974;42.664;23.264;2023-07-09T01:06:25;94782.22;;;17.53;59.50
77041;BME280;65974;42.664;23.264;2023-07-09T01:08:55;94787.25;;;17.51;59.71
77041;BME280;65974;42.664;23.264;2023-07-09T01:11:22;94792.63;;;17.51;59.52
77041;BME280;65974;42.664;23.264;2023-07-09T01:13:49;94789.13;;;17.54;58.87
77041;BME280;65974;42.664;23.264;2023-07-09T01:16:17;94785.59;;;17.57;58.92
77041;BME280;65974;42.664;23.264;2023-07-09T01:18:42;94786.09;;;17.52;58.98
77041;BME280;65974;42.664;23.264;2023-07-09T01:21:10;94779.59;;;17.50;59.18
77041;BME280;65974;42.664;23.264;2023-07-09T01:23:41;94781.91;;;17.48;59.09
77041;BME280;65974;42.664;23.264;2023-07-09T01:26:09;94787.28;;;17.48;59.04
77041;BME280;65974;42.664;23.264;2023-07-09T01:28:37;94778.44;;;17.47;59.21
77041;BME280;65974;42.664;23.264;2023-07-09T01:31:02;94770.78;;;17.46;59.47
77041;BME280;65974;42.664;23.264;2023-07-09T01:33:30;94783.13;;;17.43;59.44
77041;BME280;65974;42.664;23.264;2023-07-09T01:35:55;94778.16;;;17.42;59.49
77041;BME280;65974;42.664;23.264;2023-07-09T01:38:28;94772.78;;;17.42;59.55
77041;BME280;65974;42.664;23.264;2023-07-09T01:40:59;94777.41;;;17.41;59.76
77041;BME280;65974;42.664;23.264;2023-07-09T01:43:26;94780.69;;;17.29;59.98
77041;BME280;65974;42.664;23.264;2023-07-09T01:45:52;94786.91;;;17.26;59.82
77041;BME280;65974;42.664;23.264;2023-07-09T01:48:20;94787.38;;;17.21;60.15
77041;BME280;65974;42.664;23.264;2023-07-09T01:50:46;94791.97;;;17.21;60.01
77041;BME280;65974;42.664;23.264;2023-07-09T01:53:16;94790.06;;;17.21;60.16
77041;BME280;65974;42.664;23.264;2023-07-09T01:55:43;94791.69;;;17.15;60.33
77041;BME280;65974;42.664;23.264;2023-07-09T01:58:10;94797.91;;;17.12;60.26
77041;BME280;65974;42.664;23.264;2023-07-09T02:00:36;94791.09;;;17.04;60.85
77041;BME280;65974;42.664;23.264;2023-07-09T02:03:03;94784.91;;;17.07;60.54
77041;BME280;65974;42.664;23.264;2023-07-09T02:05:31;94797.59;;;17.06;60.25
77041;BME280;65974;42.664;23.264;2023-07-09T02:07:56;94795.69;;;17.07;60.45
77041;BME280;65974;42.664;23.264;2023-07-09T02:10:22;94788.03;;;17.05;60.46
77041;BME280;65974;42.664;23.264;2023-07-09T02:12:47;94793.44;;;17.02;60.37
77041;BME280;65974;42.664;23.264;2023-07-09T02:15:13;94793.09;;;17.00;60.73
77041;BME280;65974;42.664;23.264;2023-07-09T02:17:39;94783.91;;;16.97;60.24
77041;BME280;65974;42.664;23.264;2023-07-09T02:20:05;94781.91;;;17.01;60.21
77041;BME280;65974;42.664;23.264;2023-07-09T02:22:36;94785.69;;;17.08;60.34
77041;BME280;65974;42.664;23.264;2023-07-09T02:25:02;94794.16;;;17.06;60.25
77041;BME280;65974;42.664;23.264;2023-07-09T02:27:28;94789.94;;;17.05;60.20
77041;BME280;65974;42.664;23.264;2023-07-09T02:29:54;94799.94;;;17.04;60.22
77041;BME280;65974;42.664;23.264;2023-07-09T02:32:25;94803.41;;;17.05;60.03
77041;BME280;65974;42.664;23.264;2023-07-09T02:34:54;94805.78;;;16.99;60.47
77041;BME280;65974;42.664;23.264;2023-07-09T02:37:21;94800.53;;;16.92;60.78
77041;BME280;65974;42.664;23.264;2023-07-09T02:39:47;94806.72;;;16.89;60.57
77041;BME280;65974;42.664;23.264;2023-07-09T02:42:15;94813.31;;;16.85;60.99
77041;BME280;65974;42.664;23.264;2023-07-09T02:44:41;94813.75;;;16.83;60.66
77041;BME280;65974;42.664;23.264;2023-07-09T02:47:08;94816.88;;;16.78;60.92
77041;BME280;65974;42.664;23.264;2023-07-09T02:49:33;94819.69;;;16.71;61.21
77041;BME280;65974;42.664;23.264;2023-07-09T02:51:59;94834.00;;;16.65;61.19
77041;BME280;65974;42.664;23.264;2023-07-09T02:54:25;94829.41;;;16.62;61.14
77041;BME280;65974;42.664;23.264;2023-07-09T02:56:50;94827.56;;;16.59;61.29
77041;BME280;65974;42.664;23.264;2023-07-09T02:59:16;94825.22;;;16.61;61.29
77041;BME280;65974;42.664;23.264;2023-07-09T03:01:41;94831.75;;;16.60;61.20
77041;BME280;65974;42.664;23.264;2023-07-09T03:04:07;94822.56;;;16.57;61.15
77041;BME280;65974;42.664;23.264;2023-07-09T03:06:35;94832.59;;;16.57;61.62
77041;BME280;65974;42.664;23.264;2023-07-09T03:09:02;94833.75;;;16.56;61.46
77041;BME280;65974;42.664;23.264;2023-07-09T03:11:32;94837.56;;;16.55;61.21
77041;BME280;65974;42.664;23.264;2023-07-09T03:13:59;94832.63;;;16.53;61.30
77041;BME280;65974;42.664;23.264;2023-07-09T03:16:30;94825.31;;;16.54;61.34
77041;BME280;65974;42.664;23.264;2023-07-09T03:18:57;94837.22;;;16.53;61.88
77041;BME280;65974;42.664;23.264;2023-07-09T03:21:23;94832.63;;;16.53;61.44
77041;BME280;65974;42.664;23.264;2023-07-09T03:23:49;94838.41;;;16.52;61.73
77041;BME280;65974;42.664;23.264;2023-07-09T03:26:15;94832.66;;;16.50;62.01
77041;BME280;65974;42.664;23.264;2023-07-09T03:28:41;94841.84;;;16.49;61.88
77041;BME280;65974;42.664;23.264;2023-07-09T03:31:06;94837.25;;;16.49;61.80
77041;BME280;65974;42.664;23.264;2023-07-09T03:33:31;94837.22;;;16.53;61.79
77041;BME280;65974;42.664;23.264;2023-07-09T03:35:57;94845.28;;;16.53;62.35
77041;BME280;65974;42.664;23.264;2023-07-09T03:38:23;94841.44;;;16.54;62.13
77041;BME280;65974;42.664;23.264;2023-07-09T03:40:54;94840.28;;;16.55;62.03
77041;BME280;65974;42.664;23.264;2023-07-09T03:43:20;94840.69;;;16.53;62.02
77041;BME280;65974;42.664;23.264;2023-07-09T03:45:46;94834.88;;;16.58;62.10
77041;BME280;65974;42.664;23.264;2023-07-09T03:48:12;94841.72;;;16.63;62.33
77041;BME280;65974;42.664;23.264;2023-07-09T03:50:38;94848.59;;;16.64;61.78
77041;BME280;65974;42.664;23.264;2023-07-09T03:53:04;94847.03;;;16.66;61.88
77041;BME280;65974;42.664;23.264;2023-07-09T03:55:31;94849.31;;;16.68;61.59
77041;BME280;65974;42.664;23.264;2023-07-09T03:57:57;94850.44;;;16.70;61.95
77041;BME280;65974;42.664;23.264;2023-07-09T04:00:23;94841.22;;;16.71;61.51
77041;BME280;65974;42.664;23.264;2023-07-09T04:02:49;94852.25;;;16.77;61.84
77041;BME280;65974;42.664;23.264;2023-07-09T04:05:15;94851.81;;;16.82;61.69
77041;BME280;65974;42.664;23.264;2023-07-09T04:07:40;94862.09;;;16.87;61.89
77041;BME280;65974;42.664;23.264;2023-07-09T04:10:06;94857.44;;;16.91;61.88
77041;BME280;65974;42.664;23.264;2023-07-09T04:12:32;94858.16;;;16.95;61.88
77041;BME280;65974;42.664;23.264;2023-07-09T04:14:58;94866.09;;;17.02;61.85
77041;BME280;65974;42.664;23.264;2023-07-09T04:17:23;94858.75;;;17.06;61.82
77041;BME280;65974;42.664;23.264;2023-07-09T04:19:50;94860.56;;;17.13;61.37
77041;BME280;65974;42.664;23.264;2023-07-09T04:22:16;94865.50;;;17.18;61.77
77041;BME280;65974;42.664;23.264;2023-07-09T04:24:41;94861.50;;;17.26;61.49
77041;BME280;65974;42.664;23.264;2023-07-09T04:27:07;94868.25;;;17.37;59.82
77041;BME280;65974;42.664;23.264;2023-07-09T04:29:33;94869.66;;;17.45;60.77
77041;BME280;65974;42.664;23.264;2023-07-09T04:32:00;94862.25;;;17.53;60.79
77041;BME280;65974;42.664;23.264;2023-07-09T04:34:26;94866.81;;;17.56;60.83
77041;BME280;65974;42.664;23.264;2023-07-09T04:36:51;94871.66;;;17.64;61.05
77041;BME280;65974;42.664;23.264;2023-07-09T04:39:17;94873.06;;;17.72;60.65
77041;BME280;65974;42.664;23.264;2023-07-09T04:41:42;94875.63;;;17.79;60.48
77041;BME280;65974;42.664;23.264;2023-07-09T04:44:08;94873.97;;;17.86;60.28
77041;BME280;65974;42.664;23.264;2023-07-09T04:46:33;94871.22;;;17.89;60.23
77041;BME280;65974;42.664;23.264;2023-07-09T04:48:59;94871.91;;;17.93;59.75
77041;BME280;65974;42.664;23.264;2023-07-09T04:51:25;94871.00;;;18.00;59.55
77041;BME280;65974;42.664;23.264;2023-07-09T04:53:51;94877.81;;;18.08;59.83
77041;BME280;65974;42.664;23.264;2023-07-09T04:56:17;94870.81;;;18.10;59.79
77041;BME280;65974;42.664;23.264;2023-07-09T04:58:43;94880.66;;;18.20;59.09
77041;BME280;65974;42.664;23.264;2023-07-09T05:01:08;94880.38;;;18.34;59.43
77041;BME280;65974;42.664;23.264;2023-07-09T05:03:34;94877.81;;;18.47;58.13
77041;BME280;65974;42.664;23.264;2023-07-09T05:05:59;94880.38;;;18.54;58.80
77041;BME280;65974;42.664;23.264;2023-07-09T05:08:25;94880.97;;;18.62;58.68
77041;BME280;65974;42.664;23.264;2023-07-09T05:10:51;94881.28;;;18.67;57.70
77041;BME280;65974;42.664;23.264;2023-07-09T05:13:18;94888.03;;;18.75;57.94
77041;BME280;65974;42.664;23.264;2023-07-09T05:15:46;94891.41;;;18.79;57.53
77041;BME280;65974;42.664;23.264;2023-07-09T05:18:14;94893.97;;;18.86;56.13
77041;BME280;65974;42.664;23.264;2023-07-09T05:20:40;94895.91;;;18.86;55.94
77041;BME280;65974;42.664;23.264;2023-07-09T05:23:08;94902.41;;;18.88;55.27
77041;BME280;65974;42.664;23.264;2023-07-09T05:25:34;94901.63;;;18.88;55.74
77041;BME280;65974;42.664;23.264;2023-07-09T05:28:02;94901.41;;;18.98;55.85
77041;BME280;65974;42.664;23.264;2023-07-09T05:30:28;94894.66;;;19.06;55.44
77041;BME280;65974;42.664;23.264;2023-07-09T05:32:53;94903.03;;;19.12;56.42
77041;BME280;65974;42.664;23.264;2023-07-09T05:35:25;94902.03;;;19.22;54.64
77041;BME280;65974;42.664;23.264;2023-07-09T05:37:53;94895.28;;;19.30;54.98
77041;BME280;65974;42.664;23.264;2023-07-09T05:40:18;94889.66;;;19.41;54.29
77041;BME280;65974;42.664;23.264;2023-07-09T05:42:44;94893.63;;;19.52;54.52
77041;BME280;65974;42.664;23.264;2023-07-09T05:45:10;94893.19;;;19.54;54.34
77041;BME280;65974;42.664;23.264;2023-07-09T05:47:35;94897.44;;;19.55;54.44
77041;BME280;65974;42.664;23.264;2023-07-09T05:50:02;94894.03;;;19.51;53.93
77041;BME280;65974;42.664;23.264;2023-07-09T05:52:28;94896.22;;;19.56;53.84
77041;BME280;65974;42.664;23.264;2023-07-09T05:54:54;94894.19;;;19.60;54.82
77041;BME280;65974;42.664;23.264;2023-07-09T05:57:20;94896.06;;;19.63;53.83
77041;BME280;65974;42.664;23.264;2023-07-09T05:59:46;94897.50;;;19.67;54.61
77041;BME280;65974;42.664;23.264;2023-07-09T06:02:13;94901.97;;;19.74;54.89
77041;BME280;65974;42.664;23.264;2023-07-09T06:04:39;94898.41;;;19.77;54.90
77041;BME280;65974;42.664;23.264;2023-07-09T06:07:04;94896.28;;;19.84;54.04
77041;BME280;65974;42.664;23.264;2023-07-09T06:09:30;94893.59;;;19.84;53.72
77041;BME280;65974;42.664;23.264;2023-07-09T06:11:57;94895.63;;;19.80;53.53
77041;BME280;65974;42.664;23.264;2023-07-09T06:14:22;94897.31;;;19.74;53.34
77041;BME280;65974;42.664;23.264;2023-07-09T06:16:48;94884.88;;;19.77;53.94
77041;BME280;65974;42.664;23.264;2023-07-09T06:19:13;94887.09;;;19.82;54.50
77041;BME280;65974;42.664;23.264;2023-07-09T06:21:39;94885.88;;;19.83;53.26
77041;BME280;65974;42.664;23.264;2023-07-09T06:24:06;94887.31;;;19.87;53.55
77041;BME280;65974;42.664;23.264;2023-07-09T06:26:32;94882.25;;;19.89;53.31
77041;BME280;65974;42.664;23.264;2023-07-09T06:28:57;94883.34;;;19.92;53.38
77041;BME280;65974;42.664;23.264;2023-07-09T06:31:23;94883.66;;;19.94;53.16
77041;BME280;65974;42.664;23.264;2023-07-09T06:33:50;94885.09;;;19.98;52.96
77041;BME280;65974;42.664;23.264;2023-07-09T06:36:16;94886.19;;;20.01;52.84
77041;BME280;65974;42.664;23.264;2023-07-09T06:38:42;94881.13;;;20.03;52.21
77041;BME280;65974;42.664;23.264;2023-07-09T06:41:07;94882.28;;;20.02;52.23
77041;BME280;65974;42.664;23.264;2023-07-09T06:43:34;94878.75;;;20.05;52.65
77041;BME280;65974;42.664;23.264;2023-07-09T06:46:01;94877.03;;;20.11;53.41
77041;BME280;65974;42.664;23.264;2023-07-09T06:48:28;94877.97;;;20.21;53.46
77041;BME280;65974;42.664;23.264;2023-07-09T06:50:55;94878.53;;;20.28;52.34
77041;BME280;65974;42.664;23.264;2023-07-09T06:53:21;94877.91;;;20.37;52.69
77041;BME280;65974;42.664;23.264;2023-07-09T06:55:47;94877.06;;;20.40;51.68
77041;BME280;65974;42.664;23.264;2023-07-09T06:58:17;94871.31;;;20.38;51.63
77041;BME280;65974;42.664;23.264;2023-07-09T07:00:43;94875.34;;;20.46;51.64
77041;BME280;65974;42.664;23.264;2023-07-09T07:03:08;94875.16;;;20.53;50.64
77041;BME280;65974;42.664;23.264;2023-07-09T07:05:34;94864.84;;;20.48;50.96
77041;BME280;65974;42.664;23.264;2023-07-09T07:08:01;94876.22;;;20.55;51.31
77041;BME280;65974;42.664;23.264;2023-07-09T07:10:27;94880.66;;;20.62;50.97
77041;BME280;65974;42.664;23.264;2023-07-09T07:12:52;94870.94;;;20.64;51.03
77041;BME280;65974;42.664;23.264;2023-07-09T07:15:18;94869.31;;;20.67;51.03
77041;BME280;65974;42.664;23.264;2023-07-09T07:17:44;94872.69;;;20.71;50.73
77041;BME280;65974;42.664;23.264;2023-07-09T07:20:11;94874.41;;;20.77;50.77
77041;BME280;65974;42.664;23.264;2023-07-09T07:22:37;94869.97;;;20.83;49.69
77041;BME280;65974;42.664;23.264;2023-07-09T07:25:04;94870.63;;;20.87;48.37
77041;BME280;65974;42.664;23.264;2023-07-09T07:27:30;94864.88;;;20.85;48.71
77041;BME280;65974;42.664;23.264;2023-07-09T07:29:55;94872.25;;;20.98;49.73
77041;BME280;65974;42.664;23.264;2023-07-09T07:32:21;94866.50;;;20.96;48.77
77041;BME280;65974;42.664;23.264;2023-07-09T07:34:47;94865.34;;;20.97;49.35
77041;BME280;65974;42.664;23.264;2023-07-09T07:37:13;94857.53;;;20.99;49.98
77041;BME280;65974;42.664;23.264;2023-07-09T07:39:39;94860.72;;;21.10;49.87
77041;BME280;65974;42.664;23.264;2023-07-09T07:42:04;94859.16;;;21.21;51.10
77041;BME280;65974;42.664;23.264;2023-07-09T07:44:30;94850.63;;;21.23;49.32
77041;BME280;65974;42.664;23.264;2023-07-09T07:46:55;94856.69;;;21.27;49.47
77041;BME280;65974;42.664;23.264;2023-07-09T07:49:21;94858.09;;;21.31;50.35
77041;BME280;65974;42.664;23.264;2023-07-09T07:51:47;94858.63;;;21.39;49.74
77041;BME280;65974;42.664;23.264;2023-07-09T07:54:13;94863.03;;;21.45;49.55
77041;BME280;65974;42.664;23.264;2023-07-09T07:56:41;94854.59;;;21.43;49.63
77041;BME280;65974;42.664;23.264;2023-07-09T07:59:06;94849.06;;;21.47;50.71
77041;BME280;65974;42.664;23.264;2023-07-09T08:01:32;94854.56;;;21.56;50.55
77041;BME280;65974;42.664;23.264;2023-07-09T08:04:01;94853.25;;;21.60;50.16
77041;BME280;65974;42.664;23.264;2023-07-09T08:06:26;94848.91;;;21.63;50.11
77041;BME280;65974;42.664;23.264;2023-07-09T08:08:52;94845.22;;;21.70;49.82
77041;BME280;65974;42.664;23.264;2023-07-09T08:11:17;94860.72;;;21.69;48.84
77041;BME280;65974;42.664;23.264;2023-07-09T08:13:43;94861.59;;;21.66;48.88
77041;BME280;65974;42.664;23.264;2023-07-09T08:16:08;94845.31;;;21.66;49.70
77041;BME280;65974;42.664;23.264;2023-07-09T08:18:36;94841.94;;;21.75;49.41
77041;BME280;65974;42.664;23.264;2023-07-09T08:21:02;94844.31;;;21.85;50.47
77041;BME280;65974;42.664;23.264;2023-07-09T08:23:28;94836.56;;;21.96;49.68
77041;BME280;65974;42.664;23.264;2023-07-09T08:25:55;94844.59;;;22.00;47.89
77041;BME280;65974;42.664;23.264;2023-07-09T08:28:20;94840.03;;;21.97;48.11
77041;BME280;65974;42.664;23.264;2023-07-09T08:30:46;94837.81;;;22.04;49.22
77041;BME280;65974;42.664;23.264;2023-07-09T08:33:12;94842.06;;;22.05;47.46
77041;BME280;65974;42.664;23.264;2023-07-09T08:35:37;94841.38;;;22.14;48.18
77041;BME280;65974;42.664;23.264;2023-07-09T08:38:03;94845.19;;;22.16;47.84
77041;BME280;65974;42.664;23.264;2023-07-09T08:40:28;94832.78;;;22.15;49.47
77041;BME280;65974;42.664;23.264;2023-07-09T08:43:02;94839.47;;;22.23;48.81
77041;BME280;65974;42.664;23.264;2023-07-09T08:45:47;94836.81;;;22.32;48.75
77041;BME280;65974;42.664;23.264;2023-07-09T08:48:33;94839.28;;;22.39;48.16
77041;BME280;65974;42.664;23.264;2023-07-09T08:51:04;94842.50;;;22.47;47.48
77041;BME280;65974;42.664;23.264;2023-07-09T08:53:43;94838.13;;;22.50;47.63
77041;BME280;65974;42.664;23.264;2023-07-09T08:56:10;94840.94;;;22.37;47.49
77041;BME280;65974;42.664;23.264;2023-07-09T08:58:36;94845.72;;;22.33;47.82
77041;BME280;65974;42.664;23.264;2023-07-09T09:01:05;94838.91;;;22.28;47.98
77041;BME280;65974;42.664;23.264;2023-07-09T09:03:41;94842.41;;;22.29;47.94
77041;BME280;65974;42.664;23.264;2023-07-09T09:06:12;94841.69;;;22.37;48.11
77041;BME280;65974;42.664;23.264;2023-07-09T09:08:44;94840.78;;;22.40;48.10
77041;BME280;65974;42.664;23.264;2023-07-09T09:11:25;94844.41;;;22.37;48.33
77041;BME280;65974;42.664;23.264;2023-07-09T09:13:56;94845.66;;;22.46;47.52
77041;BME280;65974;42.664;23.264;2023-07-09T09:16:30;94845.22;;;22.47;48.14
77041;BME280;65974;42.664;23.264;2023-07-09T09:18:59;94833.94;;;22.49;47.37
77041;BME280;65974;42.664;23.264;2023-07-09T09:21:26;94838.13;;;22.50;47.89
77041;BME280;65974;42.664;23.264;2023-07-09T09:23:57;94841.25;;;22.61;47.68
77041;BME280;65974;42.664;23.264;2023-07-09T09:26:30;94843.06;;;22.64;47.57
77041;BME280;65974;42.664;23.264;2023-07-09T09:28:56;94849.16;;;22.68;47.43
77041;BME280;65974;42.664;23.264;2023-07-09T09:31:24;94844.44;;;22.68;46.49
77041;BME280;65974;42.664;23.264;2023-07-09T09:33:51;94837.97;;;22.66;46.25
77041;BME280;65974;42.664;23.264;2023-07-09T09:36:25;94833.09;;;22.61;46.88
77041;BME280;65974;42.664;23.264;2023-07-09T09:38:51;94827.13;;;22.66;46.42
77041;BME280;65974;42.664;23.264;2023-07-09T09:41:23;94834.41;;;22.78;46.59
77041;BME280;65974;42.664;23.264;2023-07-09T09:43:52;94827.31;;;22.80;45.98
77041;BME280;65974;42.664;23.264;2023-07-09T09:46:25;94828.72;;;22.85;46.48
77041;BME280;65974;42.664;23.264;2023-07-09T09:48:59;94833.38;;;22.84;46.25
77041;BME280;65974;42.664;23.264;2023-07-09T09:51:26;94815.13;;;22.94;46.39
77041;BME280;65974;42.664;23.264;2023-07-09T09:53:59;94825.59;;;23.04;46.54
77041;BME280;65974;42.664;23.264;2023-07-09T09:56:43;94823.94;;;23.07;45.72
77041;BME280;65974;42.664;23.264;2023-07-09T09:59:25;94816.41;;;23.02;45.37
77041;BME280;65974;42.664;23.264;2023-07-09T10:02:01;94820.47;;;22.97;45.59
77041;BME280;65974;42.664;23.264;2023-07-09T10:04:28;94819.44;;;23.04;46.17
77041;BME280;65974;42.664;23.264;2023-07-09T10:07:07;94820.03;;;23.17;45.10
77041;BME280;65974;42.664;23.264;2023-07-09T10:09:45;94812.38;;;23.25;46.39
77041;BME280;65974;42.664;23.264;2023-07-09T10:12:51;94808.03;;;23.36;45.06
77041;BME280;65974;42.664;23.264;2023-07-09T10:21:21;94807.63;;;23.56;44.71
77041;BME280;65974;42.664;23.264;2023-07-09T10:26:36;94808.25;;;23.51;43.27
77041;BME280;65974;42.664;23.264;2023-07-09T10:32:03;94803.53;;;23.42;44.33
77041;BME280;65974;42.664;23.264;2023-07-09T10:40:14;94797.53;;;23.65;43.62
77041;BME280;65974;42.664;23.264;2023-07-09T10:42:54;94799.03;;;23.75;43.45
77041;BME280;65974;42.664;23.264;2023-07-09T10:45:48;94791.03;;;23.72;41.67
77041;BME280;65974;42.664;23.264;2023-07-09T10:48:32;94786.78;;;23.80;42.27
77041;BME280;65974;42.664;23.264;2023-07-09T10:50:59;94799.47;;;23.92;41.55
77041;BME280;65974;42.664;23.264;2023-07-09T10:53:33;94789.66;;;23.95;40.70
77041;BME280;65974;42.664;23.264;2023-07-09T10:56:11;94795.41;;;23.97;40.50
77041;BME280;65974;42.664;23.264;2023-07-09T10:59:19;94796.16;;;23.97;40.20
77041;BME280;65974;42.664;23.264;2023-07-09T11:01:54;94796.00;;;24.01;40.51
77041;BME280;65974;42.664;23.264;2023-07-09T11:06:48;94790.28;;;24.08;40.78
77041;BME280;65974;42.664;23.264;2023-07-09T11:09:27;94784.19;;;24.22;40.68
77041;BME280;65974;42.664;23.264;2023-07-09T11:11:58;94791.59;;;24.39;41.32
77041;BME280;65974;42.664;23.264;2023-07-09T11:14:41;94782.94;;;24.41;40.99
77041;BME280;65974;42.664;23.264;2023-07-09T11:17:14;94795.94;;;24.55;40.97
77041;BME280;65974;42.664;23.264;2023-07-09T11:19:48;94791.69;;;24.54;39.85
77041;BME280;65974;42.664;23.264;2023-07-09T11:22:38;94801.69;;;24.57;39.96
77041;BME280;65974;42.664;23.264;2023-07-09T11:25:12;94785.97;;;24.52;39.05
77041;BME280;65974;42.664;23.264;2023-07-09T11:27:52;94787.28;;;24.65;39.32
77041;BME280;65974;42.664;23.264;2023-07-09T11:30:27;94795.09;;;24.73;38.53
77041;BME280;65974;42.664;23.264;2023-07-09T11:33:01;94786.63;;;24.71;38.99
77041;BME280;65974;42.664;23.264;2023-07-09T11:35:29;94789.66;;;24.73;39.54
77041;BME280;65974;42.664;23.264;2023-07-09T11:38:16;94781.97;;;24.80;39.42
77041;BME280;65974;42.664;23.264;2023-07-09T11:40:50;94778.47;;;24.80;39.31
77041;BME280;65974;42.664;23.264;2023-07-09T11:43:36;94769.69;;;24.85;39.02
77041;BME280;65974;42.664;23.264;2023-07-09T11:46:15;94784.88;;;25.00;37.65
77041;BME280;65974;42.664;23.264;2023-07-09T11:48:43;94782.59;;;25.08;37.76
77041;BME280;65974;42.664;23.264;2023-07-09T11:51:38;94780.25;;;25.15;38.74
77041;BME280;65974;42.664;23.264;2023-07-09T11:54:05;94771.34;;;25.15;39.32
77041;BME280;65974;42.664;23.264;2023-07-09T11:56:32;94772.31;;;25.26;39.54
77041;BME280;65974;42.664;23.264;2023-07-09T11:58:58;94768.97;;;25.31;38.41
77041;BME280;65974;42.664;23.264;2023-07-09T12:01:36;94768.16;;;25.40;37.54
77041;BME280;65974;42.664;23.264;2023-07-09T12:04:04;94750.19;;;25.33;37.45
77041;BME280;65974;42.664;23.264;2023-07-09T12:06:32;94761.38;;;25.35;38.73
77041;BME280;65974;42.664;23.264;2023-07-09T12:08:58;94765.56;;;25.46;37.58
77041;BME280;65974;42.664;23.264;2023-07-09T12:11:33;94761.25;;;25.54;38.91
77041;BME280;65974;42.664;23.264;2023-07-09T12:14:10;94766.13;;;25.73;38.23
77041;BME280;65974;42.664;23.264;2023-07-09T12:16:39;94768.25;;;25.93;37.74
77041;BME280;65974;42.664;23.264;2023-07-09T12:19:05;94763.38;;;26.26;37.06
77041;BME280;65974;42.664;23.264;2023-07-09T12:21:33;94754.91;;;26.24;36.32
77041;BME280;65974;42.664;23.264;2023-07-09T12:24:00;94755.41;;;26.23;37.84
77041;BME280;65974;42.664;23.264;2023-07-09T12:26:30;94756.22;;;26.43;37.22
77041;BME280;65974;42.664;23.264;2023-07-09T12:28:57;94758.22;;;26.57;36.80
77041;BME280;65974;42.664;23.264;2023-07-09T12:31:30;94748.88;;;26.78;36.25
77041;BME280;65974;42.664;23.264;2023-07-09T12:33:57;94764.09;;;27.00;36.38
77041;BME280;65974;42.664;23.264;2023-07-09T12:36:25;94761.75;;;27.27;34.91
77041;BME280;65974;42.664;23.264;2023-07-09T12:38:53;94751.69;;;27.19;35.16
77041;BME280;65974;42.664;23.264;2023-07-09T12:41:28;94759.22;;;27.24;34.40
77041;BME280;65974;42.664;23.264;2023-07-09T12:43:54;94749.63;;;27.14;34.98
77041;BME280;65974;42.664;23.264;2023-07-09T12:46:21;94753.63;;;27.33;36.18
77041;BME280;65974;42.664;23.264;2023-07-09T12:48:47;94745.31;;;27.62;33.97
77041;BME280;65974;42.664;23.264;2023-07-09T12:51:16;94740.31;;;27.60;33.79
77041;BME280;65974;42.664;23.264;2023-07-09T12:53:43;94737.16;;;27.67;34.94
77041;BME280;65974;42.664;23.264;2023-07-09T12:56:12;94738.84;;;27.85;34.39
77041;BME280;65974;42.664;23.264;2023-07-09T12:58:39;94740.50;;;27.97;34.46
77041;BME280;65974;42.664;23.264;2023-07-09T13:01:07;94747.19;;;28.22;34.21
77041;BME280;65974;42.664;23.264;2023-07-09T13:03:33;94739.31;;;28.29;33.20
77041;BME280;65974;42.664;23.264;2023-07-09T13:06:25;94747.41;;;28.70;34.28
77041;BME280;65974;42.664;23.264;2023-07-09T13:08:56;94742.63;;;29.01;32.85
77041;BME280;65974;42.664;23.264;2023-07-09T13:11:22;94732.59;;;29.30;31.58
77041;BME280;65974;42.664;23.264;2023-07-09T13:13:59;94731.56;;;29.75;30.92
77041;BME280;65974;42.664;23.264;2023-07-09T13:16:26;94733.81;;;29.82;31.22
77041;BME280;65974;42.664;23.264;2023-07-09T13:18:52;94734.91;;;30.29;30.40
77041;BME280;65974;42.664;23.264;2023-07-09T13:21:19;94736.22;;;30.50;30.23